sensor_id;sensor_type;location;lat;lon;timestamp;temperature;humidity
3770;DHT22;1900;48.890;9.190;2022-10-16T00:01:57;21.00;74.30
3770;DHT22;1900;48.890;9.190;2022-10-16T00:04:23;21.00;74.30
3770;DHT22;1900;48.890;9.190;2022-10-16T00:06:48;21.00;74.30
3770;DHT22;1900;48.890;9.190;2022-10-16T00:09:14;21.00;74.30
3770;DHT22;1900;48.890;9.190;2022-10-16T00:11:40;21.00;74.40
3770;DHT22;1900;48.890;9.190;2022-10-16T00:14:12;21.00;74.40
3770;DHT22;1900;48.890;9.190;2022-10-16T00:16:38;21.00;74.40
3770;DHT22;1900;48.890;9.190;2022-10-16T00:19:05;20.90;74.30
3770;DHT22;1900;48.890;9.190;2022-10-16T00:21:31;20.90;74.30
3770;DHT22;1900;48.890;9.190;2022-10-16T00:24:00;20.90;74.30
3770;DHT22;1900;48.890;9.190;2022-10-16T00:26:27;20.90;74.30
3770;DHT22;1900;48.890;9.190;2022-10-16T00:28:53;20.90;74.30
3770;DHT22;1900;48.890;9.190;2022-10-16T00:31:21;20.90;74.30
3770;DHT22;1900;48.890;9.190;2022-10-16T00:33:47;20.90;74.40
3770;DHT22;1900;48.890;9.190;2022-10-16T00:36:16;20.90;74.40
3770;DHT22;1900;48.890;9.190;2022-10-16T00:38:42;20.90;74.50
3770;DHT22;1900;48.890;9.190;2022-10-16T00:41:17;20.90;74.50
3770;DHT22;1900;48.890;9.190;2022-10-16T00:43:46;20.90;74.50
3770;DHT22;1900;48.890;9.190;2022-10-16T00:48:48;20.90;74.40
3770;DHT22;1900;48.890;9.190;2022-10-16T00:51:14;20.90;74.40
3770;DHT22;1900;48.890;9.190;2022-10-16T00:53:40;20.90;74.40
3770;DHT22;1900;48.890;9.190;2022-10-16T00:56:06;20.90;74.30
3770;DHT22;1900;48.890;9.190;2022-10-16T00:58:32;20.90;74.30
3770;DHT22;1900;48.890;9.190;2022-10-16T01:00:57;20.90;74.30
3770;DHT22;1900;48.890;9.190;2022-10-16T01:03:32;20.90;74.30
3770;DHT22;1900;48.890;9.190;2022-10-16T01:06:21;20.90;74.40
3770;DHT22;1900;48.890;9.190;2022-10-16T01:09:10;20.80;74.30
3770;DHT22;1900;48.890;9.190;2022-10-16T01:12:01;20.80;74.30
3770;DHT22;1900;48.890;9.190;2022-10-16T01:14:40;20.80;74.30
3770;DHT22;1900;48.890;9.190;2022-10-16T01:17:15;20.80;74.30
3770;DHT22;1900;48.890;9.190;2022-10-16T01:20:00;20.80;74.30
3770;DHT22;1900;48.890;9.190;2022-10-16T01:22:43;20.80;74.30
3770;DHT22;1900;48.890;9.190;2022-10-16T01:25:17;20.80;74.40
3770;DHT22;1900;48.890;9.190;2022-10-16T01:27:45;20.80;74.50
3770;DHT22;1900;48.890;9.190;2022-10-16T01:30:13;20.80;74.50
3770;DHT22;1900;48.890;9.190;2022-10-16T01:32:52;20.80;74.40
3770;DHT22;1900;48.890;9.190;2022-10-16T01:35:30;20.80;74.50
3770;DHT22;1900;48.890;9.190;2022-10-16T01:38:03;20.80;74.40
3770;DHT22;1900;48.890;9.190;2022-10-16T01:40:32;20.80;74.30
3770;DHT22;1900;48.890;9.190;2022-10-16T01:43:12;20.80;74.30
3770;DHT22;1900;48.890;9.190;2022-10-16T01:45:38;20.80;74.20
3770;DHT22;1900;48.890;9.190;2022-10-16T01:48:06;20.70;74.10
3770;DHT22;1900;48.890;9.190;2022-10-16T01:50:37;20.70;74.10
3770;DHT22;1900;48.890;9.190;2022-10-16T01:53:06;20.70;74.10
3770;DHT22;1900;48.890;9.190;2022-10-16T01:55:35;20.70;74.10
3770;DHT22;1900;48.890;9.190;2022-10-16T01:58:04;20.70;74.20
3770;DHT22;1900;48.890;9.190;2022-10-16T02:00:31;20.70;74.20
3770;DHT22;1900;48.890;9.190;2022-10-16T02:02:58;20.70;74.20
3770;DHT22;1900;48.890;9.190;2022-10-16T02:05:30;20.70;74.30
3770;DHT22;1900;48.890;9.190;2022-10-16T02:07:56;20.70;74.30
3770;DHT22;1900;48.890;9.190;2022-10-16T02:10:24;20.70;74.40
3770;DHT22;1900;48.890;9.190;2022-10-16T02:12:57;20.70;74.40
3770;DHT22;1900;48.890;9.190;2022-10-16T02:15:24;20.70;74.50
3770;DHT22;1900;48.890;9.190;2022-10-16T02:17:50;20.70;74.40
3770;DHT22;1900;48.890;9.190;2022-10-16T02:20:16;20.70;74.30
3770;DHT22;1900;48.890;9.190;2022-10-16T02:22:47;20.70;74.40
3770;DHT22;1900;48.890;9.190;2022-10-16T02:28:27;20.70;74.40
3770;DHT22;1900;48.890;9.190;2022-10-16T02:31:00;20.70;74.40
3770;DHT22;1900;48.890;9.190;2022-10-16T02:33:28;20.70;74.40
3770;DHT22;1900;48.890;9.190;2022-10-16T02:35:55;20.70;74.50
3770;DHT22;1900;48.890;9.190;2022-10-16T02:38:22;20.70;74.60
3770;DHT22;1900;48.890;9.190;2022-10-16T02:40:49;20.70;74.50
3770;DHT22;1900;48.890;9.190;2022-10-16T02:43:15;20.70;74.50
3770;DHT22;1900;48.890;9.190;2022-10-16T02:45:41;20.70;74.50
3770;DHT22;1900;48.890;9.190;2022-10-16T02:48:07;20.70;74.50
3770;DHT22;1900;48.890;9.190;2022-10-16T02:50:33;20.70;74.50
3770;DHT22;1900;48.890;9.190;2022-10-16T02:52:58;20.70;74.50
3770;DHT22;1900;48.890;9.190;2022-10-16T02:55:24;20.70;74.60
3770;DHT22;1900;48.890;9.190;2022-10-16T02:57:50;20.70;74.50
3770;DHT22;1900;48.890;9.190;2022-10-16T03:00:16;20.70;74.50
3770;DHT22;1900;48.890;9.190;2022-10-16T03:02:43;20.70;74.50
3770;DHT22;1900;48.890;9.190;2022-10-16T03:05:09;20.70;74.40
3770;DHT22;1900;48.890;9.190;2022-10-16T03:07:35;20.70;74.40
3770;DHT22;1900;48.890;9.190;2022-10-16T03:10:01;20.70;74.40
3770;DHT22;1900;48.890;9.190;2022-10-16T03:12:27;20.70;74.30
3770;DHT22;1900;48.890;9.190;2022-10-16T03:14:54;20.70;74.20
3770;DHT22;1900;48.890;9.190;2022-10-16T03:17:20;20.70;74.30
3770;DHT22;1900;48.890;9.190;2022-10-16T03:19:45;20.70;74.30
3770;DHT22;1900;48.890;9.190;2022-10-16T03:22:11;20.70;74.30
3770;DHT22;1900;48.890;9.190;2022-10-16T03:24:37;20.60;74.10
3770;DHT22;1900;48.890;9.190;2022-10-16T03:27:02;20.60;74.10
3770;DHT22;1900;48.890;9.190;2022-10-16T03:29:28;20.60;74.20
3770;DHT22;1900;48.890;9.190;2022-10-16T03:31:55;20.60;74.20
3770;DHT22;1900;48.890;9.190;2022-10-16T03:34:21;20.60;74.20
3770;DHT22;1900;48.890;9.190;2022-10-16T03:36:47;20.60;74.20
3770;DHT22;1900;48.890;9.190;2022-10-16T03:39:13;20.60;74.20
3770;DHT22;1900;48.890;9.190;2022-10-16T03:41:39;20.50;74.10
3770;DHT22;1900;48.890;9.190;2022-10-16T03:44:05;20.50;74.10
3770;DHT22;1900;48.890;9.190;2022-10-16T03:46:31;20.50;74.10
3770;DHT22;1900;48.890;9.190;2022-10-16T03:48:56;20.50;74.20
3770;DHT22;1900;48.890;9.190;2022-10-16T03:51:22;20.50;74.30
3770;DHT22;1900;48.890;9.190;2022-10-16T03:53:48;20.50;74.30
3770;DHT22;1900;48.890;9.190;2022-10-16T03:56:13;20.50;74.30
3770;DHT22;1900;48.890;9.190;2022-10-16T03:58:39;20.50;74.30
3770;DHT22;1900;48.890;9.190;2022-10-16T04:01:05;20.50;74.30
3770;DHT22;1900;48.890;9.190;2022-10-16T04:03:31;20.50;74.30
3770;DHT22;1900;48.890;9.190;2022-10-16T04:05:56;20.50;74.30
3770;DHT22;1900;48.890;9.190;2022-10-16T04:08:22;20.50;74.30
3770;DHT22;1900;48.890;9.190;2022-10-16T04:10:48;20.50;74.40
3770;DHT22;1900;48.890;9.190;2022-10-16T04:13:14;20.50;74.40
3770;DHT22;1900;48.890;9.190;2022-10-16T04:15:40;20.50;74.40
3770;DHT22;1900;48.890;9.190;2022-10-16T04:18:06;20.50;74.30
3770;DHT22;1900;48.890;9.190;2022-10-16T04:20:32;20.50;74.20
3770;DHT22;1900;48.890;9.190;2022-10-16T04:22:58;20.50;74.20
3770;DHT22;1900;48.890;9.190;2022-10-16T04:25:24;20.50;74.30
3770;DHT22;1900;48.890;9.190;2022-10-16T04:27:49;20.50;74.30
3770;DHT22;1900;48.890;9.190;2022-10-16T04:30:15;20.50;74.40
3770;DHT22;1900;48.890;9.190;2022-10-16T04:32:41;20.50;74.40
3770;DHT22;1900;48.890;9.190;2022-10-16T04:35:07;20.50;74.40
3770;DHT22;1900;48.890;9.190;2022-10-16T04:37:33;20.50;74.40
3770;DHT22;1900;48.890;9.190;2022-10-16T04:39:58;20.50;74.40
3770;DHT22;1900;48.890;9.190;2022-10-16T04:42:24;20.50;74.40
3770;DHT22;1900;48.890;9.190;2022-10-16T04:44:50;20.50;74.40
3770;DHT22;1900;48.890;9.190;2022-10-16T04:47:16;20.50;74.40
3770;DHT22;1900;48.890;9.190;2022-10-16T04:49:41;20.50;74.50
3770;DHT22;1900;48.890;9.190;2022-10-16T04:52:07;20.50;74.50
3770;DHT22;1900;48.890;9.190;2022-10-16T04:54:35;20.50;74.50
3770;DHT22;1900;48.890;9.190;2022-10-16T04:57:00;20.50;74.60
3770;DHT22;1900;48.890;9.190;2022-10-16T04:59:26;20.50;74.60
3770;DHT22;1900;48.890;9.190;2022-10-16T05:01:52;20.50;74.60
3770;DHT22;1900;48.890;9.190;2022-10-16T05:04:17;20.60;74.70
3770;DHT22;1900;48.890;9.190;2022-10-16T05:06:43;20.60;74.70
3770;DHT22;1900;48.890;9.190;2022-10-16T05:09:09;20.60;74.60
3770;DHT22;1900;48.890;9.190;2022-10-16T05:11:35;20.60;74.60
3770;DHT22;1900;48.890;9.190;2022-10-16T05:14:01;20.60;74.60
3770;DHT22;1900;48.890;9.190;2022-10-16T05:16:26;20.60;74.60
3770;DHT22;1900;48.890;9.190;2022-10-16T05:18:52;20.60;74.60
3770;DHT22;1900;48.890;9.190;2022-10-16T05:21:19;20.60;74.60
3770;DHT22;1900;48.890;9.190;2022-10-16T05:23:44;20.60;74.60
3770;DHT22;1900;48.890;9.190;2022-10-16T05:26:10;20.60;74.60
3770;DHT22;1900;48.890;9.190;2022-10-16T05:28:36;20.60;74.60
3770;DHT22;1900;48.890;9.190;2022-10-16T05:31:06;20.60;74.60
3770;DHT22;1900;48.890;9.190;2022-10-16T05:33:33;20.60;74.60
3770;DHT22;1900;48.890;9.190;2022-10-16T05:36:06;20.60;74.60
3770;DHT22;1900;48.890;9.190;2022-10-16T05:38:33;20.60;74.60
3770;DHT22;1900;48.890;9.190;2022-10-16T05:40:59;20.60;74.60
3770;DHT22;1900;48.890;9.190;2022-10-16T05:43:27;20.60;74.60
3770;DHT22;1900;48.890;9.190;2022-10-16T05:45:57;20.60;74.60
3770;DHT22;1900;48.890;9.190;2022-10-16T05:48:23;20.60;74.60
3770;DHT22;1900;48.890;9.190;2022-10-16T05:50:55;20.60;74.60
3770;DHT22;1900;48.890;9.190;2022-10-16T05:53:21;20.60;74.60
3770;DHT22;1900;48.890;9.190;2022-10-16T05:55:55;20.60;74.60
3770;DHT22;1900;48.890;9.190;2022-10-16T05:58:21;20.60;74.60
3770;DHT22;1900;48.890;9.190;2022-10-16T06:00:58;20.60;74.60
3770;DHT22;1900;48.890;9.190;2022-10-16T06:03:25;20.60;74.60
3770;DHT22;1900;48.890;9.190;2022-10-16T06:05:51;20.60;74.60
3770;DHT22;1900;48.890;9.190;2022-10-16T06:08:18;20.60;74.60
3770;DHT22;1900;48.890;9.190;2022-10-16T06:10:44;20.60;74.60
3770;DHT22;1900;48.890;9.190;2022-10-16T06:13:11;20.60;74.50
3770;DHT22;1900;48.890;9.190;2022-10-16T06:15:38;20.60;74.50
3770;DHT22;1900;48.890;9.190;2022-10-16T06:18:05;20.60;74.50
3770;DHT22;1900;48.890;9.190;2022-10-16T06:20:31;20.70;74.60
3770;DHT22;1900;48.890;9.190;2022-10-16T06:22:57;20.60;74.50
3770;DHT22;1900;48.890;9.190;2022-10-16T06:25:22;20.70;74.60
3770;DHT22;1900;48.890;9.190;2022-10-16T06:27:48;20.60;74.40
3770;DHT22;1900;48.890;9.190;2022-10-16T06:30:14;20.60;74.30
3770;DHT22;1900;48.890;9.190;2022-10-16T06:32:39;20.60;75.00
3770;DHT22;1900;48.890;9.190;2022-10-16T06:35:05;20.60;74.30
3770;DHT22;1900;48.890;9.190;2022-10-16T06:37:31;20.60;74.20
3770;DHT22;1900;48.890;9.190;2022-10-16T06:39:56;20.60;74.20
3770;DHT22;1900;48.890;9.190;2022-10-16T06:42:22;20.60;74.30
3770;DHT22;1900;48.890;9.190;2022-10-16T06:44:48;20.60;74.30
3770;DHT22;1900;48.890;9.190;2022-10-16T06:47:13;20.60;74.40
3770;DHT22;1900;48.890;9.190;2022-10-16T06:49:39;20.60;74.30
3770;DHT22;1900;48.890;9.190;2022-10-16T06:52:05;20.50;74.20
3770;DHT22;1900;48.890;9.190;2022-10-16T06:54:31;20.50;74.20
3770;DHT22;1900;48.890;9.190;2022-10-16T06:56:56;20.50;74.20
3770;DHT22;1900;48.890;9.190;2022-10-16T06:59:22;20.50;74.20
3770;DHT22;1900;48.890;9.190;2022-10-16T07:01:48;20.50;74.20
3770;DHT22;1900;48.890;9.190;2022-10-16T07:04:14;20.50;74.20
3770;DHT22;1900;48.890;9.190;2022-10-16T07:06:40;20.50;74.20
3770;DHT22;1900;48.890;9.190;2022-10-16T07:09:09;20.50;74.30
3770;DHT22;1900;48.890;9.190;2022-10-16T07:11:36;20.50;74.30
3770;DHT22;1900;48.890;9.190;2022-10-16T07:14:02;20.50;75.00
3770;DHT22;1900;48.890;9.190;2022-10-16T07:16:30;20.40;74.20
3770;DHT22;1900;48.890;9.190;2022-10-16T07:18:57;20.40;74.30
3770;DHT22;1900;48.890;9.190;2022-10-16T07:21:26;20.40;74.40
3770;DHT22;1900;48.890;9.190;2022-10-16T07:23:53;20.40;74.30
3770;DHT22;1900;48.890;9.190;2022-10-16T07:26:19;20.40;74.40
3770;DHT22;1900;48.890;9.190;2022-10-16T07:28:45;20.40;74.50
3770;DHT22;1900;48.890;9.190;2022-10-16T07:31:13;20.50;74.60
3770;DHT22;1900;48.890;9.190;2022-10-16T07:33:40;20.50;74.70
3770;DHT22;1900;48.890;9.190;2022-10-16T07:36:07;20.50;74.80
3770;DHT22;1900;48.890;9.190;2022-10-16T07:38:34;20.50;74.70
3770;DHT22;1900;48.890;9.190;2022-10-16T07:41:02;20.50;74.80
3770;DHT22;1900;48.890;9.190;2022-10-16T07:43:28;20.50;74.80
3770;DHT22;1900;48.890;9.190;2022-10-16T07:45:54;20.60;74.80
3770;DHT22;1900;48.890;9.190;2022-10-16T07:48:21;20.60;74.80
3770;DHT22;1900;48.890;9.190;2022-10-16T07:50:47;20.60;74.80
3770;DHT22;1900;48.890;9.190;2022-10-16T07:53:13;20.60;74.80
3770;DHT22;1900;48.890;9.190;2022-10-16T07:55:39;20.60;74.70
3770;DHT22;1900;48.890;9.190;2022-10-16T07:58:06;20.60;74.70
3770;DHT22;1900;48.890;9.190;2022-10-16T08:00:32;20.60;74.70
3770;DHT22;1900;48.890;9.190;2022-10-16T08:02:58;20.60;74.80
3770;DHT22;1900;48.890;9.190;2022-10-16T08:05:27;20.60;74.80
3770;DHT22;1900;48.890;9.190;2022-10-16T08:07:53;20.60;74.80
3770;DHT22;1900;48.890;9.190;2022-10-16T08:10:20;20.60;74.80
3770;DHT22;1900;48.890;9.190;2022-10-16T08:12:46;20.70;75.00
3770;DHT22;1900;48.890;9.190;2022-10-16T08:15:12;20.70;75.00
3770;DHT22;1900;48.890;9.190;2022-10-16T08:17:38;20.70;74.90
3770;DHT22;1900;48.890;9.190;2022-10-16T08:20:04;20.70;75.00
3770;DHT22;1900;48.890;9.190;2022-10-16T08:22:30;20.70;75.70
3770;DHT22;1900;48.890;9.190;2022-10-16T08:24:56;20.70;75.10
3770;DHT22;1900;48.890;9.190;2022-10-16T08:27:22;20.80;75.30
3770;DHT22;1900;48.890;9.190;2022-10-16T08:29:49;20.80;75.40
3770;DHT22;1900;48.890;9.190;2022-10-16T08:32:15;20.90;75.60
3770;DHT22;1900;48.890;9.190;2022-10-16T08:34:41;20.90;75.70
3770;DHT22;1900;48.890;9.190;2022-10-16T08:37:06;20.90;75.70
3770;DHT22;1900;48.890;9.190;2022-10-16T08:39:36;21.00;75.70
3770;DHT22;1900;48.890;9.190;2022-10-16T08:42:23;21.00;75.80
3770;DHT22;1900;48.890;9.190;2022-10-16T08:48:00;21.10;76.00
3770;DHT22;1900;48.890;9.190;2022-10-16T08:50:30;21.20;76.20
3770;DHT22;1900;48.890;9.190;2022-10-16T08:52:57;21.20;76.30
3770;DHT22;1900;48.890;9.190;2022-10-16T08:55:48;21.30;76.50
3770;DHT22;1900;48.890;9.190;2022-10-16T08:58:17;21.30;76.40
3770;DHT22;1900;48.890;9.190;2022-10-16T09:00:49;21.40;76.50
3770;DHT22;1900;48.890;9.190;2022-10-16T09:11:54;21.60;76.50
3770;DHT22;1900;48.890;9.190;2022-10-16T09:19:51;21.70;76.60
3770;DHT22;1900;48.890;9.190;2022-10-16T09:22:22;21.80;76.70
3770;DHT22;1900;48.890;9.190;2022-10-16T09:24:52;21.80;76.70
3770;DHT22;1900;48.890;9.190;2022-10-16T09:27:17;21.80;76.60
3770;DHT22;1900;48.890;9.190;2022-10-16T09:29:43;21.90;76.80
3770;DHT22;1900;48.890;9.190;2022-10-16T09:32:14;21.90;77.00
3770;DHT22;1900;48.890;9.190;2022-10-16T09:34:45;22.00;77.00
3770;DHT22;1900;48.890;9.190;2022-10-16T09:37:18;22.00;77.00
3770;DHT22;1900;48.890;9.190;2022-10-16T09:42:15;22.20;77.30
3770;DHT22;1900;48.890;9.190;2022-10-16T09:44:41;22.30;77.40
3770;DHT22;1900;48.890;9.190;2022-10-16T09:47:19;22.30;77.40
3770;DHT22;1900;48.890;9.190;2022-10-16T09:49:54;22.40;77.50
3770;DHT22;1900;48.890;9.190;2022-10-16T09:52:22;22.50;78.40
3770;DHT22;1900;48.890;9.190;2022-10-16T09:55:00;22.60;77.90
3770;DHT22;1900;48.890;9.190;2022-10-16T09:57:27;22.70;77.90
3770;DHT22;1900;48.890;9.190;2022-10-16T09:59:57;22.70;77.80
3770;DHT22;1900;48.890;9.190;2022-10-16T10:02:29;22.80;77.70
3770;DHT22;1900;48.890;9.190;2022-10-16T10:04:55;22.90;77.80
3770;DHT22;1900;48.890;9.190;2022-10-16T10:09:52;23.10;78.10
3770;DHT22;1900;48.890;9.190;2022-10-16T10:12:27;23.10;78.10
3770;DHT22;1900;48.890;9.190;2022-10-16T10:14:56;23.20;78.10
3770;DHT22;1900;48.890;9.190;2022-10-16T10:17:28;23.20;78.00
3770;DHT22;1900;48.890;9.190;2022-10-16T10:19:55;23.30;78.00
3770;DHT22;1900;48.890;9.190;2022-10-16T10:22:42;23.40;78.10
3770;DHT22;1900;48.890;9.190;2022-10-16T10:28:03;23.60;78.60
3770;DHT22;1900;48.890;9.190;2022-10-16T10:30:41;23.70;78.90
3770;DHT22;1900;48.890;9.190;2022-10-16T10:44:03;24.30;79.30
3770;DHT22;1900;48.890;9.190;2022-10-16T10:46:37;24.40;79.10
3770;DHT22;1900;48.890;9.190;2022-10-16T10:54:58;24.70;79.10
3770;DHT22;1900;48.890;9.190;2022-10-16T11:06:00;25.10;79.60
3770;DHT22;1900;48.890;9.190;2022-10-16T11:08:59;25.20;80.00
3770;DHT22;1900;48.890;9.190;2022-10-16T11:11:32;25.30;80.10
3770;DHT22;1900;48.890;9.190;2022-10-16T11:16:39;25.70;80.70
3770;DHT22;1900;48.890;9.190;2022-10-16T11:19:46;25.90;80.90
3770;DHT22;1900;48.890;9.190;2022-10-16T11:24:58;26.20;80.50
3770;DHT22;1900;48.890;9.190;2022-10-16T11:30:22;26.60;80.70
3770;DHT22;1900;48.890;9.190;2022-10-16T11:35:53;26.90;80.90
3770;DHT22;1900;48.890;9.190;2022-10-16T11:46:43;27.40;79.40
3770;DHT22;1900;48.890;9.190;2022-10-16T11:49:20;27.50;79.20
3770;DHT22;1900;48.890;9.190;2022-10-16T11:51:59;27.70;79.30
3770;DHT22;1900;48.890;9.190;2022-10-16T11:54:42;27.70;79.10
3770;DHT22;1900;48.890;9.190;2022-10-16T11:57:34;27.90;79.50
3770;DHT22;1900;48.890;9.190;2022-10-16T12:06:01;28.20;79.80
3770;DHT22;1900;48.890;9.190;2022-10-16T12:08:30;28.30;79.20
3770;DHT22;1900;48.890;9.190;2022-10-16T12:11:23;28.40;78.30
3770;DHT22;1900;48.890;9.190;2022-10-16T12:13:50;28.40;77.60
3770;DHT22;1900;48.890;9.190;2022-10-16T12:18:43;28.50;77.80
3770;DHT22;1900;48.890;9.190;2022-10-16T12:21:10;28.50;77.60
3770;DHT22;1900;48.890;9.190;2022-10-16T12:23:50;28.50;77.60
3770;DHT22;1900;48.890;9.190;2022-10-16T12:26:27;28.50;77.40
3770;DHT22;1900;48.890;9.190;2022-10-16T12:28:54;28.50;77.30
3770;DHT22;1900;48.890;9.190;2022-10-16T12:31:20;28.50;77.50
3770;DHT22;1900;48.890;9.190;2022-10-16T12:33:57;28.50;77.50
3770;DHT22;1900;48.890;9.190;2022-10-16T12:36:32;28.50;77.20
3770;DHT22;1900;48.890;9.190;2022-10-16T12:38:59;28.40;77.20
3770;DHT22;1900;48.890;9.190;2022-10-16T12:41:28;28.40;77.30
3770;DHT22;1900;48.890;9.190;2022-10-16T12:43:56;28.40;77.40
3770;DHT22;1900;48.890;9.190;2022-10-16T12:46:26;28.50;77.10
3770;DHT22;1900;48.890;9.190;2022-10-16T12:51:42;28.50;77.00
3770;DHT22;1900;48.890;9.190;2022-10-16T12:54:37;28.50;77.60
3770;DHT22;1900;48.890;9.190;2022-10-16T13:11:38;28.60;76.00
3770;DHT22;1900;48.890;9.190;2022-10-16T13:23:03;28.50;76.10
3770;DHT22;1900;48.890;9.190;2022-10-16T13:28:07;28.40;76.00
3770;DHT22;1900;48.890;9.190;2022-10-16T13:30:54;28.40;76.00
3770;DHT22;1900;48.890;9.190;2022-10-16T13:36:02;28.40;76.00
3770;DHT22;1900;48.890;9.190;2022-10-16T13:38:30;28.40;76.20
3770;DHT22;1900;48.890;9.190;2022-10-16T13:40:58;28.40;75.90
3770;DHT22;1900;48.890;9.190;2022-10-16T13:43:37;28.40;75.80
3770;DHT22;1900;48.890;9.190;2022-10-16T13:46:07;28.40;75.70
3770;DHT22;1900;48.890;9.190;2022-10-16T13:48:34;28.30;75.90
3770;DHT22;1900;48.890;9.190;2022-10-16T13:53:36;28.30;75.80
3770;DHT22;1900;48.890;9.190;2022-10-16T13:56:04;28.40;76.00
3770;DHT22;1900;48.890;9.190;2022-10-16T13:58:30;28.40;76.30
3770;DHT22;1900;48.890;9.190;2022-10-16T14:01:04;28.50;76.60
3770;DHT22;1900;48.890;9.190;2022-10-16T14:03:32;28.50;76.50
3770;DHT22;1900;48.890;9.190;2022-10-16T14:06:04;28.60;76.50
3770;DHT22;1900;48.890;9.190;2022-10-16T14:08:31;28.60;76.00
3770;DHT22;1900;48.890;9.190;2022-10-16T14:11:00;28.60;75.80
3770;DHT22;1900;48.890;9.190;2022-10-16T14:13:36;28.60;75.30
3770;DHT22;1900;48.890;9.190;2022-10-16T14:16:07;28.50;74.90
3770;DHT22;1900;48.890;9.190;2022-10-16T14:18:34;28.50;75.50
3770;DHT22;1900;48.890;9.190;2022-10-16T14:21:05;28.50;74.80
3770;DHT22;1900;48.890;9.190;2022-10-16T14:23:37;28.40;74.40
3770;DHT22;1900;48.890;9.190;2022-10-16T14:28:42;28.30;74.30
3770;DHT22;1900;48.890;9.190;2022-10-16T14:31:29;28.20;74.50
3770;DHT22;1900;48.890;9.190;2022-10-16T14:33:55;28.20;74.30
3770;DHT22;1900;48.890;9.190;2022-10-16T14:36:22;28.10;74.30
3770;DHT22;1900;48.890;9.190;2022-10-16T14:39:02;28.10;74.20
3770;DHT22;1900;48.890;9.190;2022-10-16T14:41:29;28.00;73.90
3770;DHT22;1900;48.890;9.190;2022-10-16T14:43:56;28.00;74.10
3770;DHT22;1900;48.890;9.190;2022-10-16T14:46:31;27.90;74.10
3770;DHT22;1900;48.890;9.190;2022-10-16T14:51:35;27.80;73.90
3770;DHT22;1900;48.890;9.190;2022-10-16T14:54:02;27.80;73.90
3770;DHT22;1900;48.890;9.190;2022-10-16T14:56:35;27.70;73.80
3770;DHT22;1900;48.890;9.190;2022-10-16T14:59:13;27.70;73.60
3770;DHT22;1900;48.890;9.190;2022-10-16T15:01:40;27.70;73.50
3770;DHT22;1900;48.890;9.190;2022-10-16T15:04:08;27.60;73.60
3770;DHT22;1900;48.890;9.190;2022-10-16T15:06:34;27.60;73.60
3770;DHT22;1900;48.890;9.190;2022-10-16T15:09:00;27.50;73.60
3770;DHT22;1900;48.890;9.190;2022-10-16T15:11:25;27.50;73.70
3770;DHT22;1900;48.890;9.190;2022-10-16T15:13:51;27.50;73.70
3770;DHT22;1900;48.890;9.190;2022-10-16T15:16:17;27.50;73.70
3770;DHT22;1900;48.890;9.190;2022-10-16T15:18:43;27.40;73.60
3770;DHT22;1900;48.890;9.190;2022-10-16T15:21:19;27.40;73.60
3770;DHT22;1900;48.890;9.190;2022-10-16T15:23:45;27.40;73.50
3770;DHT22;1900;48.890;9.190;2022-10-16T15:26:11;27.30;73.40
3770;DHT22;1900;48.890;9.190;2022-10-16T15:28:37;27.30;73.40
3770;DHT22;1900;48.890;9.190;2022-10-16T15:31:04;27.30;73.40
3770;DHT22;1900;48.890;9.190;2022-10-16T15:33:30;27.20;73.30
3770;DHT22;1900;48.890;9.190;2022-10-16T15:35:59;27.20;73.30
3770;DHT22;1900;48.890;9.190;2022-10-16T15:38:26;27.20;73.30
3770;DHT22;1900;48.890;9.190;2022-10-16T15:40:53;27.20;73.20
3770;DHT22;1900;48.890;9.190;2022-10-16T15:43:19;27.10;73.20
3770;DHT22;1900;48.890;9.190;2022-10-16T15:48:44;27.10;73.00
3770;DHT22;1900;48.890;9.190;2022-10-16T15:51:09;27.00;73.10
3770;DHT22;1900;48.890;9.190;2022-10-16T15:53:35;27.00;73.10
3770;DHT22;1900;48.890;9.190;2022-10-16T15:56:05;27.00;73.00
3770;DHT22;1900;48.890;9.190;2022-10-16T15:58:31;26.90;72.90
3770;DHT22;1900;48.890;9.190;2022-10-16T16:01:00;26.90;72.90
3770;DHT22;1900;48.890;9.190;2022-10-16T16:03:28;26.90;72.90
3770;DHT22;1900;48.890;9.190;2022-10-16T16:05:54;26.80;72.80
3770;DHT22;1900;48.890;9.190;2022-10-16T16:08:20;26.80;72.90
3770;DHT22;1900;48.890;9.190;2022-10-16T16:11:15;26.80;72.80
3770;DHT22;1900;48.890;9.190;2022-10-16T16:13:41;26.80;72.70
3770;DHT22;1900;48.890;9.190;2022-10-16T16:16:09;26.70;72.70
3770;DHT22;1900;48.890;9.190;2022-10-16T16:18:35;26.70;72.60
3770;DHT22;1900;48.890;9.190;2022-10-16T16:21:01;26.70;72.60
3770;DHT22;1900;48.890;9.190;2022-10-16T16:23:27;26.60;72.50
3770;DHT22;1900;48.890;9.190;2022-10-16T16:26:22;26.60;72.50
3770;DHT22;1900;48.890;9.190;2022-10-16T16:28:53;26.60;72.40
3770;DHT22;1900;48.890;9.190;2022-10-16T16:31:20;26.50;72.40
3770;DHT22;1900;48.890;9.190;2022-10-16T16:33:46;26.50;72.40
3770;DHT22;1900;48.890;9.190;2022-10-16T16:36:12;26.40;72.30
3770;DHT22;1900;48.890;9.190;2022-10-16T16:38:38;26.40;72.20
3770;DHT22;1900;48.890;9.190;2022-10-16T16:41:18;26.30;72.10
3770;DHT22;1900;48.890;9.190;2022-10-16T16:43:45;26.30;72.00
3770;DHT22;1900;48.890;9.190;2022-10-16T16:46:11;26.20;71.90
3770;DHT22;1900;48.890;9.190;2022-10-16T16:48:37;26.20;72.00
3770;DHT22;1900;48.890;9.190;2022-10-16T16:51:04;26.10;71.90
3770;DHT22;1900;48.890;9.190;2022-10-16T16:53:32;26.10;72.00
3770;DHT22;1900;48.890;9.190;2022-10-16T16:56:02;26.00;71.90
3770;DHT22;1900;48.890;9.190;2022-10-16T16:58:27;26.00;72.00
3770;DHT22;1900;48.890;9.190;2022-10-16T17:00:53;26.00;72.00
3770;DHT22;1900;48.890;9.190;2022-10-16T17:03:19;25.90;71.80
3770;DHT22;1900;48.890;9.190;2022-10-16T17:06:04;25.90;71.80
3770;DHT22;1900;48.890;9.190;2022-10-16T17:08:31;25.80;71.80
3770;DHT22;1900;48.890;9.190;2022-10-16T17:10:57;25.80;71.90
3770;DHT22;1900;48.890;9.190;2022-10-16T17:13:24;25.80;71.90
3770;DHT22;1900;48.890;9.190;2022-10-16T17:15:51;25.80;72.00
3770;DHT22;1900;48.890;9.190;2022-10-16T17:18:18;25.70;71.90
3770;DHT22;1900;48.890;9.190;2022-10-16T17:20:45;25.70;71.90
3770;DHT22;1900;48.890;9.190;2022-10-16T17:23:11;25.60;71.90
3770;DHT22;1900;48.890;9.190;2022-10-16T17:25:38;25.60;71.90
3770;DHT22;1900;48.890;9.190;2022-10-16T17:28:04;25.60;71.90
3770;DHT22;1900;48.890;9.190;2022-10-16T17:30:31;25.60;71.90
3770;DHT22;1900;48.890;9.190;2022-10-16T17:32:58;25.50;71.80
3770;DHT22;1900;48.890;9.190;2022-10-16T17:35:24;25.50;71.80
3770;DHT22;1900;48.890;9.190;2022-10-16T17:37:51;25.50;71.80
3770;DHT22;1900;48.890;9.190;2022-10-16T17:40:17;25.50;71.80
3770;DHT22;1900;48.890;9.190;2022-10-16T17:42:43;25.40;71.80
3770;DHT22;1900;48.890;9.190;2022-10-16T17:45:08;25.40;71.80
3770;DHT22;1900;48.890;9.190;2022-10-16T17:47:34;25.40;71.80
3770;DHT22;1900;48.890;9.190;2022-10-16T17:50:01;25.30;71.70
3770;DHT22;1900;48.890;9.190;2022-10-16T17:52:27;25.30;71.70
3770;DHT22;1900;48.890;9.190;2022-10-16T17:54:53;25.30;71.70
3770;DHT22;1900;48.890;9.190;2022-10-16T17:57:18;25.30;71.70
3770;DHT22;1900;48.890;9.190;2022-10-16T17:59:44;25.20;71.70
3770;DHT22;1900;48.890;9.190;2022-10-16T18:02:10;25.20;71.70
3770;DHT22;1900;48.890;9.190;2022-10-16T18:04:36;25.10;71.60
3770;DHT22;1900;48.890;9.190;2022-10-16T18:07:02;25.10;71.60
3770;DHT22;1900;48.890;9.190;2022-10-16T18:09:28;25.10;71.60
3770;DHT22;1900;48.890;9.190;2022-10-16T18:11:54;25.10;71.60
3770;DHT22;1900;48.890;9.190;2022-10-16T18:14:26;25.10;71.50
3770;DHT22;1900;48.890;9.190;2022-10-16T18:16:52;25.00;71.50
3770;DHT22;1900;48.890;9.190;2022-10-16T18:19:18;25.00;71.50